createdAt,value
2022-10-13T00:01:50.587Z,4.90
2022-10-13T00:04:17.257Z,4.90
2022-10-13T00:06:43.841Z,4.90
2022-10-13T00:09:10.541Z,4.90
2022-10-13T00:11:37.488Z,4.90
2022-10-13T00:14:05.143Z,4.80
2022-10-13T00:16:32.888Z,4.80
2022-10-13T00:18:59.891Z,4.80
2022-10-13T00:21:27.759Z,4.80
2022-10-13T00:23:55.241Z,4.70
2022-10-13T00:26:23.857Z,4.70
2022-10-13T00:28:52.919Z,4.70
2022-10-13T00:31:26.132Z,4.70
2022-10-13T00:33:53.384Z,4.60
2022-10-13T00:36:21.171Z,4.60
2022-10-13T00:38:47.896Z,4.60
2022-10-13T00:41:15.121Z,4.60
2022-10-13T00:43:52.465Z,4.60
2022-10-13T00:46:19.550Z,4.50
2022-10-13T00:48:47.658Z,4.50
2022-10-13T00:51:17.813Z,4.50
2022-10-13T00:53:46.728Z,4.50
2022-10-13T00:56:15.251Z,4.50
2022-10-13T00:58:43.556Z,4.40
2022-10-13T01:01:10.369Z,4.50
2022-10-13T01:03:37.806Z,4.50
2022-10-13T01:06:05.779Z,4.50
2022-10-13T01:08:33.326Z,4.40
2022-10-13T01:11:17.433Z,4.40
2022-10-13T01:13:46.902Z,4.50
2022-10-13T01:16:19.949Z,4.50
2022-10-13T01:18:58.247Z,4.60
2022-10-13T01:21:51.826Z,4.60
2022-10-13T01:24:42.797Z,4.60
2022-10-13T01:27:47.073Z,4.70
2022-10-13T01:30:20.690Z,4.70
2022-10-13T01:33:17.660Z,4.80
2022-10-13T01:36:06.873Z,4.80
2022-10-13T01:38:43.732Z,4.80
2022-10-13T01:41:33.282Z,4.90
2022-10-13T01:44:23.073Z,5.00
2022-10-13T01:46:51.753Z,4.90
2022-10-13T01:49:21.888Z,4.90
2022-10-13T01:51:50.083Z,5.00
2022-10-13T01:54:16.677Z,5.00
2022-10-13T01:56:52.292Z,5.00
2022-10-13T01:59:19.525Z,5.00
2022-10-13T02:01:56.051Z,5.00
2022-10-13T02:04:54.095Z,5.00
2022-10-13T02:07:28.095Z,5.00
2022-10-13T02:10:09.561Z,5.00
2022-10-13T02:12:55.095Z,5.00
2022-10-13T02:15:27.847Z,5.00
2022-10-13T02:17:55.378Z,5.00
2022-10-13T02:20:22.701Z,5.00
2022-10-13T02:22:55.980Z,5.00
2022-10-13T02:25:23.122Z,5.00
2022-10-13T02:27:50.286Z,5.10
2022-10-13T02:30:24.106Z,5.20
2022-10-13T02:32:50.945Z,5.20
2022-10-13T02:35:17.845Z,5.30
2022-10-13T02:37:44.505Z,5.40
2022-10-13T02:40:11.870Z,5.50
2022-10-13T02:42:38.629Z,5.50
2022-10-13T02:45:05.858Z,5.60
2022-10-13T02:47:32.505Z,5.60
2022-10-13T02:49:59.105Z,5.70
2022-10-13T02:52:25.835Z,5.70
2022-10-13T02:54:52.438Z,5.70
2022-10-13T02:57:19.192Z,5.70
2022-10-13T02:59:45.946Z,5.70
2022-10-13T03:02:12.689Z,5.70
2022-10-13T03:04:40.181Z,5.70
2022-10-13T03:07:07.231Z,5.60
2022-10-13T03:09:33.956Z,5.60
2022-10-13T03:12:00.665Z,5.60
2022-10-13T03:14:27.436Z,5.50
2022-10-13T03:16:54.073Z,5.50
2022-10-13T03:19:20.812Z,5.40
2022-10-13T03:21:47.453Z,5.40
2022-10-13T03:24:14.122Z,5.40
2022-10-13T03:26:40.752Z,5.40
2022-10-13T03:29:07.476Z,5.30
2022-10-13T03:31:34.137Z,5.30
2022-10-13T03:34:00.727Z,5.20
2022-10-13T03:36:27.367Z,5.20
2022-10-13T03:38:54.019Z,5.20
2022-10-13T03:41:21.144Z,5.20
2022-10-13T03:43:47.776Z,5.20
2022-10-13T03:46:16.785Z,5.20
2022-10-13T03:48:43.732Z,5.20
2022-10-13T03:51:14.133Z,5.20
2022-10-13T03:53:40.739Z,5.20
2022-10-13T03:56:07.990Z,5.20
2022-10-13T03:58:35.176Z,5.20
2022-10-13T04:01:05.594Z,5.20
2022-10-13T04:03:33.683Z,5.10
2022-10-13T04:06:02.696Z,5.10
2022-10-13T04:08:30.245Z,5.10
2022-10-13T04:11:05.486Z,5.10
2022-10-13T04:13:32.947Z,5.10
2022-10-13T04:16:29.872Z,5.10
2022-10-13T04:18:59.742Z,5.10
2022-10-13T04:21:27.540Z,5.00
2022-10-13T04:23:58.780Z,5.10
2022-10-13T04:26:28.181Z,5.10
2022-10-13T04:28:56.666Z,5.10
2022-10-13T04:31:24.573Z,5.00
2022-10-13T04:33:51.733Z,5.00
2022-10-13T04:36:18.910Z,5.00
2022-10-13T04:38:45.973Z,5.00
2022-10-13T04:41:14.016Z,5.00
2022-10-13T04:43:41.073Z,5.00
2022-10-13T04:46:14.582Z,5.10
2022-10-13T04:48:41.717Z,5.10
2022-10-13T04:51:11.664Z,5.20
2022-10-13T04:53:39.076Z,5.20
2022-10-13T04:56:11.479Z,5.20
2022-10-13T04:58:39.061Z,5.20
2022-10-13T05:01:07.877Z,5.30
2022-10-13T05:03:35.453Z,5.30
2022-10-13T05:06:02.099Z,5.30
2022-10-13T05:08:28.824Z,5.40
2022-10-13T05:10:57.392Z,5.40
2022-10-13T05:13:25.152Z,5.40
2022-10-13T05:15:52.243Z,5.50
2022-10-13T05:18:19.093Z,5.50
2022-10-13T05:20:46.781Z,5.50
2022-10-13T05:23:14.701Z,5.60
2022-10-13T05:25:41.518Z,5.60
2022-10-13T05:28:08.712Z,5.70
2022-10-13T05:30:35.622Z,5.70
2022-10-13T05:33:02.394Z,5.80
2022-10-13T05:35:29.042Z,5.80
2022-10-13T05:37:55.745Z,5.90
2022-10-13T05:40:22.473Z,6.00
2022-10-13T05:42:53.427Z,6.00
2022-10-13T05:45:22.189Z,6.10
2022-10-13T05:47:48.824Z,6.20
2022-10-13T05:50:15.504Z,6.20
2022-10-13T05:52:43.051Z,6.30
2022-10-13T05:55:13.457Z,6.30
2022-10-13T05:57:49.414Z,6.30
2022-10-13T06:00:18.549Z,6.30
2022-10-13T06:02:51.879Z,6.40
2022-10-13T06:05:21.356Z,6.40
2022-10-13T06:07:48.259Z,6.50
2022-10-13T06:10:15.685Z,6.60
2022-10-13T06:12:42.313Z,6.60
2022-10-13T06:15:09.441Z,6.80
2022-10-13T06:17:38.182Z,6.80
2022-10-13T06:20:06.276Z,6.90
2022-10-13T06:22:38.350Z,7.00
2022-10-13T06:25:06.974Z,7.00
2022-10-13T06:27:34.015Z,7.10
2022-10-13T06:30:00.738Z,7.20
2022-10-13T06:32:27.395Z,7.30
2022-10-13T06:34:54.788Z,7.30
2022-10-13T06:37:26.969Z,7.40
2022-10-13T06:39:54.160Z,7.40
2022-10-13T06:42:21.336Z,7.50
2022-10-13T06:44:48.388Z,7.50
2022-10-13T06:47:15.019Z,7.60
2022-10-13T06:49:41.655Z,7.70
2022-10-13T06:52:09.404Z,7.70
2022-10-13T06:54:36.037Z,7.80
2022-10-13T06:57:06.387Z,7.80
2022-10-13T06:59:33.132Z,7.80
2022-10-13T07:01:59.743Z,7.90
2022-10-13T07:04:28.021Z,7.90
2022-10-13T07:06:54.673Z,7.90
2022-10-13T07:09:21.336Z,8.00
2022-10-13T07:11:49.481Z,8.10
2022-10-13T07:14:16.155Z,8.10
2022-10-13T07:16:42.908Z,8.20
2022-10-13T07:19:09.592Z,8.30
2022-10-13T07:21:36.234Z,8.30
2022-10-13T07:24:04.018Z,8.40
2022-10-13T07:26:32.460Z,8.40
2022-10-13T07:28:59.321Z,8.40
2022-10-13T07:31:26.746Z,8.50
2022-10-13T07:33:53.353Z,8.50
2022-10-13T07:36:20.348Z,8.60
2022-10-13T07:38:47.198Z,8.60
2022-10-13T07:41:14.247Z,8.60
2022-10-13T07:43:41.648Z,8.60
2022-10-13T07:46:10.145Z,8.50
2022-10-13T07:48:36.829Z,8.60
2022-10-13T07:51:08.145Z,8.60
2022-10-13T07:53:35.629Z,8.60
2022-10-13T07:56:04.332Z,8.70
2022-10-13T07:58:31.096Z,8.70
2022-10-13T08:00:59.558Z,8.80
2022-10-13T08:03:27.704Z,8.80
2022-10-13T08:05:55.007Z,8.90
2022-10-13T08:08:22.265Z,9.00
2022-10-13T08:10:49.127Z,9.10
2022-10-13T08:13:15.823Z,9.10
2022-10-13T08:15:44.549Z,9.30
2022-10-13T08:18:13.392Z,9.30
2022-10-13T08:20:44.488Z,9.40
2022-10-13T08:23:12.857Z,9.40
2022-10-13T08:25:41.435Z,9.50
2022-10-13T08:28:18.849Z,9.60
2022-10-13T08:30:46.133Z,9.60
2022-10-13T08:33:13.255Z,9.70
2022-10-13T08:35:40.179Z,9.80
2022-10-13T08:38:07.667Z,9.90
2022-10-13T08:40:34.718Z,10.00
2022-10-13T08:43:06.378Z,10.10
2022-10-13T08:45:42.097Z,10.20
2022-10-13T08:48:19.216Z,10.40
2022-10-13T08:50:50.676Z,10.60
2022-10-13T08:53:38.140Z,10.80
2022-10-13T08:56:17.336Z,11.00
2022-10-13T08:58:44.215Z,11.20
2022-10-13T09:01:10.753Z,11.40
2022-10-13T09:03:55.503Z,11.60
2022-10-13T09:06:33.709Z,11.80
2022-10-13T09:09:09.540Z,12.00
2022-10-13T09:11:42.126Z,12.10
2022-10-13T09:14:11.797Z,12.20
2022-10-13T09:16:44.088Z,12.40
2022-10-13T09:19:30.142Z,12.50
2022-10-13T09:22:17.520Z,12.70
2022-10-13T09:24:44.257Z,12.70
2022-10-13T09:27:16.596Z,12.80
2022-10-13T09:29:44.635Z,12.90
2022-10-13T09:32:19.314Z,13.00
2022-10-13T09:34:47.143Z,13.10
2022-10-13T09:37:25.695Z,13.20
2022-10-13T09:40:14.269Z,13.30
2022-10-13T09:42:40.999Z,13.40
2022-10-13T09:45:23.330Z,13.50
2022-10-13T09:47:54.772Z,13.70
2022-10-13T09:50:26.424Z,13.80
2022-10-13T09:52:54.061Z,13.90
2022-10-13T09:55:33.389Z,14.00
2022-10-13T09:58:19.722Z,14.00
2022-10-13T10:00:49.741Z,14.10
2022-10-13T10:03:22.768Z,14.20
2022-10-13T10:05:56.178Z,14.30
2022-10-13T10:09:02.203Z,14.30
2022-10-13T10:11:45.440Z,14.40
2022-10-13T10:14:30.920Z,14.50
2022-10-13T10:17:28.639Z,14.50
2022-10-13T10:20:33.033Z,14.60
2022-10-13T10:23:04.393Z,14.70
2022-10-13T10:25:44.733Z,14.80
2022-10-13T10:28:36.312Z,14.90
2022-10-13T10:31:40.352Z,14.90
2022-10-13T10:34:35.584Z,15.10
2022-10-13T10:37:13.377Z,15.20
2022-10-13T10:39:57.346Z,15.20
2022-10-13T10:42:42.722Z,15.30
2022-10-13T10:45:24.867Z,15.40
2022-10-13T10:48:01.713Z,15.40
2022-10-13T10:50:30.696Z,15.50
2022-10-13T10:53:29.156Z,15.50
2022-10-13T10:56:07.182Z,15.50
2022-10-13T10:58:44.018Z,15.60
2022-10-13T11:01:33.240Z,15.60
2022-10-13T11:04:25.522Z,15.70
2022-10-13T11:06:52.234Z,15.80
2022-10-13T11:09:41.431Z,15.80
2022-10-13T11:12:20.807Z,15.80
2022-10-13T11:14:54.758Z,15.90
2022-10-13T11:17:28.481Z,15.90
2022-10-13T11:19:55.263Z,16.00
2022-10-13T11:22:31.634Z,16.00
2022-10-13T11:25:00.973Z,16.10
2022-10-13T11:27:38.986Z,16.00
2022-10-13T11:30:26.352Z,16.00
2022-10-13T11:32:55.819Z,16.10
2022-10-13T11:35:25.833Z,16.10
2022-10-13T11:38:07.458Z,16.20
2022-10-13T11:40:34.932Z,16.20
2022-10-13T11:43:32.457Z,16.20
2022-10-13T11:46:12.469Z,16.30
2022-10-13T11:48:39.009Z,16.30
2022-10-13T11:51:23.756Z,16.40
2022-10-13T11:54:12.604Z,16.60
2022-10-13T11:56:54.000Z,16.90
2022-10-13T11:59:23.975Z,17.20
2022-10-13T12:01:55.686Z,17.40
2022-10-13T12:04:25.427Z,17.50
2022-10-13T12:06:59.461Z,17.60
2022-10-13T12:09:27.475Z,17.70
2022-10-13T12:12:00.894Z,17.70
2022-10-13T12:14:35.610Z,17.90
2022-10-13T12:17:02.466Z,18.10
2022-10-13T12:19:32.496Z,18.30
2022-10-13T12:22:01.379Z,18.40
2022-10-13T12:24:30.335Z,18.40
2022-10-13T12:26:58.576Z,18.30
2022-10-13T12:29:28.863Z,18.50
2022-10-13T12:31:58.516Z,18.50
2022-10-13T12:34:32.196Z,18.60
2022-10-13T12:37:13.920Z,18.60
2022-10-13T12:39:41.144Z,18.50
2022-10-13T12:42:11.454Z,18.40
2022-10-13T12:44:38.654Z,18.40
2022-10-13T12:47:05.381Z,18.40
2022-10-13T12:49:34.492Z,18.30
2022-10-13T12:52:14.632Z,18.10
2022-10-13T12:54:54.020Z,18.00
2022-10-13T12:57:37.837Z,17.90
2022-10-13T13:00:05.959Z,17.80
2022-10-13T13:02:33.136Z,17.90
2022-10-13T13:04:59.856Z,17.90
2022-10-13T13:07:33.230Z,17.90
2022-10-13T13:10:08.777Z,18.00
2022-10-13T13:12:37.107Z,18.00
2022-10-13T13:15:25.416Z,18.00
2022-10-13T13:17:58.434Z,17.90
2022-10-13T13:20:34.798Z,17.80
2022-10-13T13:23:01.601Z,17.70
2022-10-13T13:25:28.297Z,17.70
2022-10-13T13:27:54.975Z,17.60
2022-10-13T13:30:23.866Z,17.60
2022-10-13T13:32:50.923Z,17.50
2022-10-13T13:35:17.697Z,17.50
2022-10-13T13:37:48.161Z,17.50
2022-10-13T13:40:17.846Z,17.40
2022-10-13T13:42:44.468Z,17.30
2022-10-13T13:45:15.618Z,17.30
2022-10-13T13:47:42.657Z,17.30
2022-10-13T13:50:21.110Z,17.20
2022-10-13T13:55:38.780Z,17.10
2022-10-13T13:58:05.449Z,17.10
2022-10-13T14:00:32.063Z,17.20
2022-10-13T14:02:58.736Z,17.10
2022-10-13T14:05:25.824Z,17.10
2022-10-13T14:07:57.846Z,17.10
2022-10-13T14:10:25.629Z,17.10
2022-10-13T14:12:52.599Z,17.10
2022-10-13T14:15:19.320Z,17.20
2022-10-13T14:17:45.989Z,17.20
2022-10-13T14:20:12.779Z,17.20
2022-10-13T14:22:39.775Z,17.10
2022-10-13T14:25:07.675Z,17.10
2022-10-13T14:27:35.468Z,17.30
2022-10-13T14:30:02.468Z,17.50
2022-10-13T14:32:29.178Z,17.80
2022-10-13T14:34:55.767Z,18.20
2022-10-13T14:37:23.889Z,18.70
2022-10-13T14:39:51.621Z,19.00
2022-10-13T14:42:18.279Z,19.20
2022-10-13T14:44:45.243Z,19.50
2022-10-13T14:47:12.124Z,19.50
2022-10-13T14:49:38.724Z,19.40
2022-10-13T14:52:05.452Z,19.20
2022-10-13T14:54:32.064Z,19.00
2022-10-13T14:57:01.069Z,18.70
2022-10-13T14:59:27.901Z,18.30
2022-10-13T15:01:54.492Z,18.20
2022-10-13T15:04:21.170Z,17.90
2022-10-13T15:06:47.981Z,17.70
2022-10-13T15:09:14.803Z,17.60
2022-10-13T15:11:41.514Z,17.40
2022-10-13T15:14:09.821Z,17.40
2022-10-13T15:16:37.851Z,17.30
2022-10-13T15:19:04.861Z,17.10
2022-10-13T15:21:31.523Z,17.00
2022-10-13T15:23:58.158Z,16.90
2022-10-13T15:26:24.819Z,16.80
2022-10-13T15:28:52.968Z,16.70
2022-10-13T15:31:22.377Z,16.60
2022-10-13T15:33:51.802Z,16.40
2022-10-13T15:36:20.107Z,16.30
2022-10-13T15:38:46.874Z,16.10
2022-10-13T15:41:13.571Z,16.00
2022-10-13T15:43:40.315Z,15.80
2022-10-13T15:46:21.587Z,15.70
2022-10-13T15:48:54.365Z,15.50
2022-10-13T15:51:24.509Z,15.40
2022-10-13T15:53:51.223Z,15.20
2022-10-13T15:56:17.990Z,15.00
2022-10-13T15:58:45.487Z,14.90
2022-10-13T16:01:13.359Z,14.70
2022-10-13T16:03:40.619Z,14.60
2022-10-13T16:06:09.525Z,14.50
2022-10-13T16:08:40.603Z,14.30
2022-10-13T16:11:08.675Z,14.20
2022-10-13T16:13:35.316Z,14.10
2022-10-13T16:16:02.115Z,13.90
2022-10-13T16:18:30.522Z,13.80
2022-10-13T16:20:58.571Z,13.70
2022-10-13T16:23:25.502Z,13.60
2022-10-13T16:25:52.134Z,13.50
2022-10-13T16:28:18.863Z,13.40
2022-10-13T16:30:45.454Z,13.30
2022-10-13T16:33:12.096Z,13.30
2022-10-13T16:35:38.777Z,13.20
2022-10-13T16:38:05.581Z,13.10
2022-10-13T16:40:32.473Z,13.10
2022-10-13T16:42:59.056Z,13.00
2022-10-13T16:45:41.306Z,13.00
2022-10-13T16:48:13.003Z,12.90
2022-10-13T16:50:39.624Z,12.90
2022-10-13T16:53:06.230Z,12.80
2022-10-13T16:55:32.800Z,12.80
2022-10-13T16:57:59.405Z,12.70
2022-10-13T17:00:26.043Z,12.70
2022-10-13T17:02:52.703Z,12.60
2022-10-13T17:05:19.336Z,12.50
2022-10-13T17:07:45.900Z,12.50
2022-10-13T17:10:12.533Z,12.40
2022-10-13T17:12:39.214Z,12.40
2022-10-13T17:15:06.147Z,12.30
2022-10-13T17:17:33.049Z,12.20
2022-10-13T17:19:59.664Z,12.20
2022-10-13T17:22:26.411Z,12.10
2022-10-13T17:24:53.025Z,12.00
2022-10-13T17:27:19.913Z,12.00
2022-10-13T17:29:46.922Z,11.90
2022-10-13T17:32:13.789Z,11.90
2022-10-13T17:34:40.569Z,11.80
2022-10-13T17:37:07.258Z,11.80
2022-10-13T17:39:33.907Z,11.70
2022-10-13T17:42:00.511Z,11.60
2022-10-13T17:44:27.172Z,11.60
2022-10-13T17:46:53.815Z,11.60
2022-10-13T17:49:20.559Z,11.50
2022-10-13T17:51:51.273Z,11.50
2022-10-13T17:54:19.433Z,11.40
2022-10-13T17:56:47.557Z,11.40
2022-10-13T17:59:16.313Z,11.40
2022-10-13T18:01:43.469Z,11.30
2022-10-13T18:04:12.609Z,11.30
2022-10-13T18:06:41.172Z,11.20
2022-10-13T18:09:10.809Z,11.20
2022-10-13T18:11:38.047Z,11.10
2022-10-13T18:14:05.338Z,11.10
2022-10-13T18:16:32.465Z,11.00
2022-10-13T18:18:59.160Z,11.00
2022-10-13T18:21:29.278Z,10.90
2022-10-13T18:23:58.354Z,10.90
2022-10-13T18:26:26.187Z,10.80
2022-10-13T18:28:53.252Z,10.70
2022-10-13T18:31:24.033Z,10.70
2022-10-13T18:33:51.898Z,10.60
2022-10-13T18:36:23.510Z,10.50
2022-10-13T18:38:56.583Z,10.50
2022-10-13T18:41:24.519Z,10.40
2022-10-13T18:43:51.605Z,10.40
2022-10-13T18:46:19.092Z,10.30
2022-10-13T18:48:46.004Z,10.30
2022-10-13T18:51:15.339Z,10.20
2022-10-13T18:53:43.413Z,10.20
2022-10-13T18:56:13.387Z,10.10
2022-10-13T18:58:40.605Z,10.00
2022-10-13T19:01:13.412Z,10.00
2022-10-13T19:03:41.280Z,9.90
2022-10-13T19:06:09.944Z,9.90
2022-10-13T19:08:36.921Z,9.80
2022-10-13T19:11:21.366Z,9.80
2022-10-13T19:13:49.208Z,9.70
2022-10-13T19:16:18.523Z,9.70
2022-10-13T19:18:45.758Z,9.60
2022-10-13T19:21:12.580Z,9.60
2022-10-13T19:23:40.166Z,9.60
2022-10-13T19:26:13.940Z,9.50
2022-10-13T19:28:41.963Z,9.50
2022-10-13T19:31:10.756Z,9.50
2022-10-13T19:33:43.478Z,9.40
2022-10-13T19:36:19.645Z,9.40
2022-10-13T19:38:46.302Z,9.30
2022-10-13T19:41:12.881Z,9.30
2022-10-13T19:43:39.508Z,9.20
2022-10-13T19:46:07.425Z,9.20
2022-10-13T19:48:34.165Z,9.20
2022-10-13T19:51:01.964Z,9.10
2022-10-13T19:53:28.610Z,9.10
2022-10-13T19:55:55.305Z,9.10
2022-10-13T19:58:22.076Z,9.00
2022-10-13T20:00:49.768Z,9.00
2022-10-13T20:03:16.824Z,9.00
2022-10-13T20:05:43.845Z,9.00
2022-10-13T20:08:11.878Z,9.00
2022-10-13T20:10:42.972Z,8.90
2022-10-13T20:13:10.571Z,8.90
2022-10-13T20:15:42.827Z,8.80
2022-10-13T20:18:12.801Z,8.80
2022-10-13T20:20:41.327Z,8.80
2022-10-13T20:23:09.419Z,8.70
2022-10-13T20:25:37.886Z,8.80
2022-10-13T20:28:05.750Z,8.70
2022-10-13T20:30:32.663Z,8.70
2022-10-13T20:32:59.462Z,8.60
2022-10-13T20:35:26.288Z,8.60
2022-10-13T20:37:52.934Z,8.60
2022-10-13T20:40:19.577Z,8.60
2022-10-13T20:42:51.411Z,8.50
2022-10-13T20:45:18.805Z,8.50
2022-10-13T20:47:46.822Z,8.50
2022-10-13T20:50:13.765Z,8.40
2022-10-13T20:52:40.396Z,8.40
2022-10-13T20:55:07.216Z,8.40
2022-10-13T20:57:33.817Z,8.30
2022-10-13T21:00:00.441Z,8.30
2022-10-13T21:02:27.053Z,8.20
2022-10-13T21:04:53.683Z,8.20
2022-10-13T21:07:20.675Z,8.20
2022-10-13T21:09:52.781Z,8.20
2022-10-13T21:12:20.517Z,8.10
2022-10-13T21:14:47.152Z,8.10
2022-10-13T21:17:13.751Z,8.10
2022-10-13T21:19:40.341Z,8.00
2022-10-13T21:22:06.964Z,8.00
2022-10-13T21:24:33.772Z,8.00
2022-10-13T21:27:00.384Z,8.00
2022-10-13T21:29:27.090Z,8.00
2022-10-13T21:31:53.724Z,8.00
2022-10-13T21:34:20.441Z,8.00
2022-10-13T21:36:47.063Z,8.00
2022-10-13T21:39:14.083Z,7.90
2022-10-13T21:41:40.842Z,8.00
2022-10-13T21:44:07.536Z,8.00
2022-10-13T21:46:34.940Z,7.90
2022-10-13T21:49:03.976Z,8.00
2022-10-13T21:51:33.587Z,7.90
2022-10-13T21:54:03.666Z,7.90
2022-10-13T21:56:31.836Z,7.90
2022-10-13T21:58:58.436Z,7.90
2022-10-13T22:01:25.452Z,7.90
2022-10-13T22:03:57.536Z,7.90
2022-10-13T22:06:24.632Z,7.90
2022-10-13T22:08:53.260Z,7.90
2022-10-13T22:11:21.041Z,7.90
2022-10-13T22:13:47.746Z,7.80
2022-10-13T22:16:19.998Z,7.80
2022-10-13T22:18:46.966Z,7.80
2022-10-13T22:21:19.861Z,7.80
2022-10-13T22:23:46.774Z,7.80
2022-10-13T22:26:17.697Z,7.80
2022-10-13T22:28:44.461Z,7.70
2022-10-13T22:31:13.053Z,7.70
2022-10-13T22:33:41.857Z,7.70
2022-10-13T22:36:17.629Z,7.70
2022-10-13T22:38:45.791Z,7.60
2022-10-13T22:41:14.599Z,7.60
2022-10-13T22:43:44.155Z,7.60
2022-10-13T22:46:15.744Z,7.50
2022-10-13T22:48:42.734Z,7.50
2022-10-13T22:51:10.792Z,7.50
2022-10-13T22:53:37.751Z,7.40
2022-10-13T22:56:13.857Z,7.40
2022-10-13T22:58:40.547Z,7.40
2022-10-13T23:01:09.468Z,7.30
2022-10-13T23:03:37.076Z,7.30
2022-10-13T23:06:04.457Z,7.30
2022-10-13T23:08:31.520Z,7.20
2022-10-13T23:10:58.455Z,7.20
2022-10-13T23:13:25.609Z,7.20
2022-10-13T23:15:52.291Z,7.10
2022-10-13T23:18:18.926Z,7.10
2022-10-13T23:20:45.505Z,7.10
2022-10-13T23:23:12.234Z,7.10
2022-10-13T23:25:38.889Z,7.00
2022-10-13T23:28:05.545Z,7.00
2022-10-13T23:30:32.230Z,7.00
2022-10-13T23:32:58.831Z,7.00
2022-10-13T23:35:26.055Z,6.90
2022-10-13T23:37:52.957Z,6.90
2022-10-13T23:40:19.862Z,6.90
2022-10-13T23:42:46.563Z,6.80
2022-10-13T23:45:13.252Z,6.80
2022-10-13T23:47:39.911Z,6.80
2022-10-13T23:50:06.961Z,6.80
2022-10-13T23:52:33.601Z,6.80
2022-10-13T23:55:00.289Z,6.70
2022-10-13T23:57:28.779Z,6.70
2022-10-13T23:59:55.477Z,6.70
